Maryborough Composite, Australia

10:58 AM AEST on February 26, 2017 (GMT +1000)
Tinana West | | Change Station

Elev 62 ft 25.54 °S, 152.64 °E | Updated 4 minutes ago

Partly Cloudy
Partly Cloudy
91.4 °F
Feels Like 95 °F
N
2.0
Wind Variable Wind from South
Gusts 5.0 mph

Today
High -- | Low -- °F
--% Chance of Precip.
Yesterday
High -- | Low -- °F
Precip. -- in
Pressure 29.95 in
Visibility 6.2 miles
Clouds Scattered Clouds 3900 ft
Heat Index 95 °F
Dew Point 67 °F
Humidity 45%
Rainfall 0.00 in
Snow Depth Not available.
5:41 AM 6:22 PM
Waning Crescent, 0% visible
METAR YBUD 260000Z AUTO 09013KT 9999 // SCT039 30/17 Q1014
Pressure 29.95 in
Visibility 6.2 miles
Clouds Scattered Clouds 3900 ft
Heat Index 95 °F
Dew Point 67 °F
Humidity 45%
Rainfall 0.00 in
Snow Depth Not available.
5:41 AM 6:22 PM
Waning Crescent, 0% visible
METAR YBUD 260000Z AUTO 09013KT 9999 // SCT039 30/17 Q1014

Get Your Daily Forecast Email!

Thanks for signing up!

Be on the lookout for a verification email in your inbox.

You'll start receiving the daily forecast at 8 AM.

×

10-Day Weather Forecast

×

Almanac

Astronomy

Feb. 26, 2017 Rise Set
Actual Time
Civil Twilight
Nautical Twilight
Astronomical Twilight
Moon
Length of Visible Light
Length of Day
Tomorrow will be .
, % of the Moon is Illuminated

Today's Extremes

Country Highs Country Lows

Community

WunderPhotos

Upload Photos

1,962,540 photos uploaded!

WunderBlog® & News

Nearby

Air Quality

  Air Quality AQ Index Pollutant
Not available.

Snow Depth

Station Depth Elevation

Earthquake Activity

City Distance Mag. Time & Date
Minimum magnitude displayed is 2.5.

Coastal Water Temperatures

Place Temperature

Stations

Nearby Weather Stations

Station Location Temp. Windchill Dew Point Humidity Wind Precip. Elev Updated Type